Time;durP1;ratioP1;P1;durP2;ratioP2;P2;SDS_P1;SDS_P2;PMS_P1;PMS_P2;Temp;Humidity;BMP_temperature;BMP_pressure;BME280_temperature;BME280_humidity;BME280_pressure;Samples;Min_cycle;Max_cycle;Signal;HPM_P1;HPM_P2
2022/11/28 00:01:41;;;;;;;12.85;7.13;;;;;;;;;;7397847;19;20344;-78
2022/11/28 00:04:08;;;;;;;11.40;6.78;;;;;;;;;;7394649;19;20023;-79
2022/11/28 00:06:37;;;;;;;13.73;6.97;;;;;;;;;;7394747;19;20006;-78
2022/11/28 00:09:03;;;;;;;11.32;7.15;;;;;;;;;;7397287;19;20333;-80
2022/11/28 00:11:28;;;;;;;11.32;6.63;;;;;;;;;;7397445;19;20010;-79
2022/11/28 00:13:54;;;;;;;11.90;6.35;;;;;;;;;;7395479;19;20448;-79
2022/11/28 00:16:20;;;;;;;12.50;7.57;;;;;;;;;;7393904;19;19995;-78
2022/11/28 00:18:46;;;;;;;13.05;7.30;;;;;;;;;;7396012;19;19998;-79
2022/11/28 00:21:13;;;;;;;11.55;6.70;;;;;;;;;;7397358;19;19998;-79
2022/11/28 00:23:39;;;;;;;13.80;7.47;;;;;;;;;;7394864;19;20005;-78
2022/11/28 00:26:10;;;;;;;13.48;6.85;;;;;;;;;;7395253;19;20097;-76
2022/11/28 00:28:36;;;;;;;12.57;6.90;;;;;;;;;;7398626;19;20015;-78
2022/11/28 00:31:02;;;;;;;11.35;6.50;;;;;;;;;;7400379;19;19994;-77
2022/11/28 00:33:27;;;;;;;11.95;7.28;;;;;;;;;;7396105;19;19995;-77
2022/11/28 00:36:01;;;;;;;11.60;6.95;;;;;;;;;;7394528;19;20002;-78
2022/11/28 00:38:27;;;;;;;10.50;6.60;;;;;;;;;;7396433;19;19999;-78
2022/11/28 00:40:59;;;;;;;10.65;6.65;;;;;;;;;;7396425;19;20002;-78
2022/11/28 00:43:25;;;;;;;11.38;6.78;;;;;;;;;;7396382;19;20074;-77
2022/11/28 00:45:50;;;;;;;12.00;6.82;;;;;;;;;;7395632;19;19998;-77
2022/11/28 00:48:16;;;;;;;11.73;6.88;;;;;;;;;;7399624;19;19998;-78
2022/11/28 00:50:41;;;;;;;15.48;7.18;;;;;;;;;;7396962;19;20010;-77
2022/11/28 00:53:06;;;;;;;11.73;6.30;;;;;;;;;;7394012;19;19990;-78
2022/11/28 00:55:31;;;;;;;11.40;6.60;;;;;;;;;;7394427;19;20002;-77
2022/11/28 00:57:57;;;;;;;10.90;6.45;;;;;;;;;;7393851;19;20028;-77
2022/11/28 01:00:22;;;;;;;10.45;6.10;;;;;;;;;;7396323;19;19997;-77
2022/11/28 01:02:48;;;;;;;12.80;6.95;;;;;;;;;;7395352;19;20012;-77
2022/11/28 01:05:13;;;;;;;11.90;6.97;;;;;;;;;;7397082;19;20019;-76
2022/11/28 01:07:41;;;;;;;11.68;6.25;;;;;;;;;;7396012;19;20002;-77
2022/11/28 01:10:09;;;;;;;15.88;6.60;;;;;;;;;;7395726;19;20515;-77
2022/11/28 01:12:34;;;;;;;11.38;6.78;;;;;;;;;;7393435;19;19991;-78
2022/11/28 01:14:59;;;;;;;11.98;6.80;;;;;;;;;;7394253;19;20635;-77
2022/11/28 01:17:25;;;;;;;11.52;6.18;;;;;;;;;;7394233;19;20055;-77
2022/11/28 01:19:50;;;;;;;10.18;6.28;;;;;;;;;;7395405;19;20001;-77
2022/11/28 01:22:15;;;;;;;13.52;7.05;;;;;;;;;;7395341;19;19999;-78
2022/11/28 01:24:40;;;;;;;11.00;6.47;;;;;;;;;;7394610;19;20029;-78
2022/11/28 01:27:07;;;;;;;11.45;6.47;;;;;;;;;;7393432;19;20019;-78
2022/11/28 01:29:32;;;;;;;13.18;6.82;;;;;;;;;;7395315;19;20011;-77
2022/11/28 01:31:57;;;;;;;11.90;6.47;;;;;;;;;;7395911;19;20002;-78
2022/11/28 01:34:23;;;;;;;10.15;6.38;;;;;;;;;;7396205;19;20007;-77
2022/11/28 01:36:48;;;;;;;14.02;6.78;;;;;;;;;;7395716;19;20006;-78
2022/11/28 01:39:14;;;;;;;11.45;6.65;;;;;;;;;;7397065;19;20019;-76
2022/11/28 01:41:40;;;;;;;11.93;6.47;;;;;;;;;;7395470;19;19998;-75
2022/11/28 01:44:13;;;;;;;10.48;7.03;;;;;;;;;;7397142;19;20020;-76
2022/11/28 01:46:38;;;;;;;11.95;6.82;;;;;;;;;;7393921;19;20013;-76
2022/11/28 01:49:16;;;;;;;12.15;6.72;;;;;;;;;;7395172;19;20348;-78
2022/11/28 01:51:46;;;;;;;10.35;6.35;;;;;;;;;;7394662;19;20006;-78
2022/11/28 01:54:13;;;;;;;11.73;6.93;;;;;;;;;;7394141;19;20705;-76
2022/11/28 01:56:46;;;;;;;13.15;6.47;;;;;;;;;;7392797;19;20311;-79
2022/11/28 01:59:13;;;;;;;12.00;6.60;;;;;;;;;;7391779;19;20024;-77
2022/11/28 02:01:39;;;;;;;11.23;6.68;;;;;;;;;;7394133;19;20058;-77
2022/11/28 02:04:05;;;;;;;12.55;6.82;;;;;;;;;;7392306;19;19999;-77
2022/11/28 02:06:31;;;;;;;14.50;7.25;;;;;;;;;;7392312;19;20441;-78
2022/11/28 02:08:56;;;;;;;12.63;7.20;;;;;;;;;;7392114;19;19994;-77
2022/11/28 02:11:52;;;;;;;10.65;6.80;;;;;;;;;;7393528;19;19991;-77
2022/11/28 02:14:42;;;;;;;12.05;7.00;;;;;;;;;;7391613;19;20009;-77
2022/11/28 02:17:41;;;;;;;14.15;7.57;;;;;;;;;;7391971;19;20002;-77
2022/11/28 02:20:28;;;;;;;15.65;6.82;;;;;;;;;;7393632;19;19999;-78
2022/11/28 02:22:59;;;;;;;12.38;7.03;;;;;;;;;;7392693;19;20002;-77
2022/11/28 02:25:36;;;;;;;14.80;6.70;;;;;;;;;;7392628;19;19998;-77
2022/11/28 02:28:39;;;;;;;14.52;7.60;;;;;;;;;;7391778;19;19995;-76
2022/11/28 02:31:16;;;;;;;15.23;7.10;;;;;;;;;;7392953;19;20544;-77
2022/11/28 02:33:47;;;;;;;14.30;7.25;;;;;;;;;;7390902;19;20002;-76
2022/11/28 02:36:32;;;;;;;11.57;7.22;;;;;;;;;;7391328;19;19994;-77
2022/11/28 02:39:11;;;;;;;11.75;7.15;;;;;;;;;;7392749;19;19995;-77
2022/11/28 02:41:56;;;;;;;12.95;6.60;;;;;;;;;;7392591;19;19996;-77
2022/11/28 02:44:51;;;;;;;14.20;7.25;;;;;;;;;;7390097;19;20006;-77
2022/11/28 02:47:19;;;;;;;13.27;7.20;;;;;;;;;;7393108;19;19994;-77
2022/11/28 02:49:56;;;;;;;14.82;6.47;;;;;;;;;;7392558;19;19995;-77
2022/11/28 02:52:28;;;;;;;12.50;6.90;;;;;;;;;;7390558;19;20448;-76
2022/11/28 02:54:54;;;;;;;12.75;6.78;;;;;;;;;;7390684;19;20001;-77
2022/11/28 02:57:19;;;;;;;13.05;7.03;;;;;;;;;;7391967;19;19991;-77
2022/11/28 02:59:48;;;;;;;12.10;7.15;;;;;;;;;;7389511;19;20028;-77
2022/11/28 03:02:27;;;;;;;13.45;7.00;;;;;;;;;;7393523;19;19994;-76
2022/11/28 03:05:28;;;;;;;14.00;6.97;;;;;;;;;;7391017;19;19994;-77
2022/11/28 03:08:33;;;;;;;13.00;7.18;;;;;;;;;;7392527;19;20342;-77
2022/11/28 03:11:19;;;;;;;15.27;7.32;;;;;;;;;;7390429;19;19991;-78
2022/11/28 03:14:08;;;;;;;12.57;6.68;;;;;;;;;;7390995;19;20311;-77
2022/11/28 03:16:45;;;;;;;14.93;7.28;;;;;;;;;;7390518;19;20006;-75
2022/11/28 03:19:40;;;;;;;12.15;7.40;;;;;;;;;;7391734;19;20018;-77
2022/11/28 03:22:19;;;;;;;13.00;7.40;;;;;;;;;;7390780;19;20001;-77
2022/11/28 03:25:11;;;;;;;11.98;6.90;;;;;;;;;;7389578;19;20005;-78
2022/11/28 03:27:45;;;;;;;12.30;7.47;;;;;;;;;;7391006;19;20005;-77
2022/11/28 03:30:26;;;;;;;12.70;7.20;;;;;;;;;;7390299;19;20022;-77
2022/11/28 03:32:55;;;;;;;13.07;7.70;;;;;;;;;;7390925;19;20854;-75
2022/11/28 03:35:26;;;;;;;14.73;7.40;;;;;;;;;;7392358;19;20009;-78
2022/11/28 03:38:03;;;;;;;13.95;7.10;;;;;;;;;;7389860;19;20007;-76
2022/11/28 03:40:34;;;;;;;12.65;6.68;;;;;;;;;;7391472;19;20066;-76
2022/11/28 03:43:04;;;;;;;13.38;7.50;;;;;;;;;;7390632;19;20025;-78
2022/11/28 03:45:40;;;;;;;13.23;7.63;;;;;;;;;;7390605;19;20471;-77
2022/11/28 03:48:11;;;;;;;12.23;6.97;;;;;;;;;;7390906;19;20013;-78
2022/11/28 03:50:45;;;;;;;;;;;;;;;;;;7391679;19;20078;-77
2022/11/28 03:53:18;;;;;;;12.57;7.03;;;;;;;;;;7390508;19;20034;-77
2022/11/28 03:56:13;;;;;;;13.45;7.28;;;;;;;;;;7388053;19;20325;-77
2022/11/28 03:58:46;;;;;;;14.02;7.63;;;;;;;;;;7390520;19;20006;-77
2022/11/28 04:01:23;;;;;;;14.45;7.47;;;;;;;;;;7389193;19;20354;-78
2022/11/28 04:04:13;;;;;;;12.10;7.32;;;;;;;;;;7389713;19;20006;-78
2022/11/28 04:07:19;;;;;;;12.02;6.88;;;;;;;;;;7388991;19;20010;-77
2022/11/28 04:09:49;;;;;;;14.95;6.97;;;;;;;;;;7388568;19;20463;-77
2022/11/28 04:12:46;;;;;;;14.52;7.50;;;;;;;;;;7390194;19;20003;-76
2022/11/28 04:15:37;;;;;;;14.15;7.20;;;;;;;;;;7387977;19;20032;-77
2022/11/28 04:18:10;;;;;;;15.13;7.88;;;;;;;;;;7390650;19;20006;-77
2022/11/28 04:20:46;;;;;;;10.95;6.50;;;;;;;;;;7390675;19;20002;-77
2022/11/28 04:23:16;;;;;;;13.40;6.68;;;;;;;;;;7387975;19;19999;-78
2022/11/28 04:25:59;;;;;;;13.10;7.45;;;;;;;;;;7389586;19;20002;-78
2022/11/28 04:28:28;;;;;;;13.93;7.60;;;;;;;;;;7388897;19;20460;-77
2022/11/28 04:30:56;;;;;;;14.80;7.57;;;;;;;;;;7389855;19;19995;-77
2022/11/28 04:33:24;;;;;;;12.90;7.03;;;;;;;;;;7391650;19;20002;-76
2022/11/28 04:35:53;;;;;;;13.90;6.95;;;;;;;;;;7394069;19;20342;-76
2022/11/28 04:38:21;;;;;;;13.02;7.40;;;;;;;;;;7397724;19;20016;-78
2022/11/28 04:40:54;;;;;;;15.55;8.13;;;;;;;;;;7396815;19;20003;-78
2022/11/28 04:43:26;;;;;;;14.25;7.75;;;;;;;;;;7396159;19;19994;-76
2022/11/28 04:45:57;;;;;;;13.13;7.32;;;;;;;;;;7395430;19;20072;-78
2022/11/28 04:48:22;;;;;;;12.97;7.50;;;;;;;;;;7396662;19;20070;-77
2022/11/28 04:50:56;;;;;;;14.60;6.95;;;;;;;;;;7396525;19;20083;-77
2022/11/28 04:53:48;;;;;;;13.88;7.45;;;;;;;;;;7396255;19;20098;-78
2022/11/28 04:56:22;;;;;;;14.02;7.80;;;;;;;;;;7392695;19;20486;-76
2022/11/28 04:58:50;;;;;;;13.82;7.18;;;;;;;;;;7396242;19;20008;-77
2022/11/28 05:01:23;;;;;;;13.10;6.93;;;;;;;;;;7395479;19;20010;-77
2022/11/28 05:03:50;;;;;;;11.38;7.13;;;;;;;;;;7394315;19;20007;-77
2022/11/28 05:06:33;;;;;;;12.73;7.20;;;;;;;;;;7394504;19;20470;-77
2022/11/28 05:08:58;;;;;;;12.05;7.22;;;;;;;;;;7394542;19;19999;-75
2022/11/28 05:11:24;;;;;;;13.27;7.43;;;;;;;;;;7398205;19;20009;-77
2022/11/28 05:13:49;;;;;;;11.27;6.82;;;;;;;;;;7395681;19;19995;-76
2022/11/28 05:16:15;;;;;;;13.13;7.10;;;;;;;;;;7393634;19;20427;-78
2022/11/28 05:18:41;;;;;;;11.05;7.00;;;;;;;;;;7395654;19;19990;-78
2022/11/28 05:21:07;;;;;;;11.68;7.15;;;;;;;;;;7395497;19;20033;-77
2022/11/28 05:23:38;;;;;;;13.30;7.65;;;;;;;;;;7394148;19;19999;-78
2022/11/28 05:26:08;;;;;;;13.55;7.72;;;;;;;;;;7395418;19;20008;-77
2022/11/28 05:28:34;;;;;;;15.90;7.67;;;;;;;;;;7395435;19;19991;-76
2022/11/28 05:31:01;;;;;;;13.23;7.22;;;;;;;;;;7395767;19;20090;-79
2022/11/28 05:33:28;;;;;;;13.88;7.32;;;;;;;;;;7395155;19;20019;-77
2022/11/28 05:35:54;;;;;;;15.73;7.65;;;;;;;;;;7389035;19;20014;-78
2022/11/28 05:38:19;;;;;;;13.48;7.03;;;;;;;;;;7390381;19;20003;-77
2022/11/28 05:40:45;;;;;;;13.05;7.30;;;;;;;;;;7390018;19;20002;-78
2022/11/28 05:43:10;;;;;;;11.73;7.07;;;;;;;;;;7390242;19;20007;-77
2022/11/28 05:45:41;;;;;;;12.05;7.05;;;;;;;;;;7387846;19;20006;-77
2022/11/28 05:48:09;;;;;;;12.32;7.15;;;;;;;;;;7331582;19;20546;-78
2022/11/28 05:50:37;;;;;;;13.90;7.45;;;;;;;;;;7394093;19;19995;-78
2022/11/28 05:53:03;;;;;;;13.40;6.88;;;;;;;;;;7396792;19;20405;-77
2022/11/28 05:55:28;;;;;;;14.07;7.57;;;;;;;;;;7396871;19;20012;-76
2022/11/28 05:57:53;;;;;;;13.38;7.22;;;;;;;;;;7398346;19;20081;-77
2022/11/28 06:00:19;;;;;;;12.07;6.68;;;;;;;;;;7398585;19;19990;-77
2022/11/28 06:02:45;;;;;;;12.25;6.78;;;;;;;;;;7394722;19;19991;-77
2022/11/28 06:05:10;;;;;;;14.10;6.65;;;;;;;;;;7391462;19;20011;-77
2022/11/28 06:07:36;;;;;;;15.55;6.95;;;;;;;;;;7387894;19;20021;-76
2022/11/28 06:10:01;;;;;;;12.50;6.97;;;;;;;;;;7391673;19;19991;-77
2022/11/28 06:12:26;;;;;;;12.23;6.72;;;;;;;;;;7390579;19;19999;-78
2022/11/28 06:14:51;;;;;;;12.50;6.38;;;;;;;;;;7392536;19;20020;-78
2022/11/28 06:17:17;;;;;;;12.02;6.63;;;;;;;;;;7392501;19;20002;-78
2022/11/28 06:19:42;;;;;;;13.90;7.35;;;;;;;;;;7392123;19;19998;-78
2022/11/28 06:22:08;;;;;;;13.75;8.05;;;;;;;;;;7393707;19;20002;-77
2022/11/28 06:24:33;;;;;;;14.05;7.20;;;;;;;;;;7393898;19;19999;-76
2022/11/28 06:26:59;;;;;;;11.90;7.35;;;;;;;;;;7389723;19;20347;-79
2022/11/28 06:29:24;;;;;;;14.57;7.63;;;;;;;;;;7390736;19;20012;-79
2022/11/28 06:31:49;;;;;;;16.90;7.85;;;;;;;;;;7391833;19;20066;-79
2022/11/28 06:34:15;;;;;;;18.48;7.95;;;;;;;;;;7392095;19;20598;-80
2022/11/28 06:36:41;;;;;;;15.88;7.70;;;;;;;;;;7392220;19;19995;-77
2022/11/28 06:39:08;;;;;;;14.25;7.30;;;;;;;;;;7394041;19;20025;-79
2022/11/28 06:41:34;;;;;;;13.55;7.40;;;;;;;;;;7392742;19;19994;-80
2022/11/28 06:43:59;;;;;;;17.10;8.02;;;;;;;;;;7387453;19;20065;-79
2022/11/28 06:46:24;;;;;;;17.88;8.52;;;;;;;;;;7391917;19;20002;-80
2022/11/28 06:48:51;;;;;;;15.48;7.53;;;;;;;;;;7392898;19;20006;-80
2022/11/28 06:51:18;;;;;;;14.70;6.45;;;;;;;;;;7389778;19;20372;-78
2022/11/28 06:53:55;;;;;;;15.85;6.60;;;;;;;;;;7385837;19;20006;-79
2022/11/28 06:56:36;;;;;;;12.57;6.00;;;;;;;;;;7384506;19;20470;-79
2022/11/28 06:59:02;;;;;;;12.95;6.35;;;;;;;;;;7389656;19;20479;-82
2022/11/28 07:01:29;;;;;;;15.13;6.60;;;;;;;;;;7385033;19;20010;-83
2022/11/28 07:03:55;;;;;;;15.45;6.20;;;;;;;;;;7392087;19;20001;-81
2022/11/28 07:06:22;;;;;;;13.02;6.03;;;;;;;;;;7390438;19;20061;-81
2022/11/28 07:08:48;;;;;;;20.52;7.00;;;;;;;;;;7391964;19;19998;-80
2022/11/28 07:11:19;;;;;;;13.60;6.07;;;;;;;;;;7391744;19;20057;-81
2022/11/28 07:13:45;;;;;;;11.88;6.53;;;;;;;;;;7390869;19;20023;-82
2022/11/28 07:16:23;;;;;;;15.15;6.55;;;;;;;;;;7387042;19;19998;-79
2022/11/28 07:18:48;;;;;;;14.20;5.72;;;;;;;;;;7391859;19;19999;-78
2022/11/28 07:21:14;;;;;;;14.82;6.80;;;;;;;;;;7391787;19;20003;-80
2022/11/28 07:23:42;;;;;;;17.25;6.93;;;;;;;;;;7384964;19;19990;-78
2022/11/28 07:26:09;;;;;;;14.48;6.78;;;;;;;;;;7385368;19;20507;-79
2022/11/28 07:28:35;;;;;;;15.25;7.07;;;;;;;;;;7391893;19;20001;-81
2022/11/28 07:31:11;;;;;;;18.63;6.75;;;;;;;;;;7390232;19;20065;-79
2022/11/28 07:33:38;;;;;;;19.45;7.22;;;;;;;;;;7392228;19;20024;-79
2022/11/28 07:36:06;;;;;;;18.33;6.10;;;;;;;;;;7391021;19;20567;-84
2022/11/28 07:38:32;;;;;;;14.68;6.72;;;;;;;;;;7390233;19;20005;-80
2022/11/28 07:41:06;;;;;;;16.52;6.75;;;;;;;;;;7390540;19;19998;-79
2022/11/28 07:43:32;;;;;;;20.00;8.52;;;;;;;;;;7391713;19;19998;-80
2022/11/28 07:45:57;;;;;;;16.98;8.40;;;;;;;;;;7391337;19;20428;-83
2022/11/28 07:48:23;;;;;;;20.75;8.20;;;;;;;;;;7388526;19;19999;-81
2022/11/28 07:50:48;;;;;;;14.45;6.90;;;;;;;;;;7389730;19;20011;-82
2022/11/28 07:53:13;;;;;;;18.20;7.22;;;;;;;;;;7390517;19;20009;-82
2022/11/28 07:55:39;;;;;;;14.10;6.75;;;;;;;;;;7389408;19;20522;-80
2022/11/28 07:58:04;;;;;;;18.13;6.50;;;;;;;;;;7392402;19;20006;-82
2022/11/28 08:00:30;;;;;;;17.75;7.28;;;;;;;;;;7388801;19;19990;-81
2022/11/28 08:02:56;;;;;;;13.25;6.88;;;;;;;;;;7395078;19;20002;-81
2022/11/28 08:05:21;;;;;;;14.80;6.85;;;;;;;;;;7395618;19;19999;-82
2022/11/28 08:07:49;;;;;;;12.77;7.40;;;;;;;;;;7393423;19;20006;-82
2022/11/28 08:10:14;;;;;;;13.95;6.22;;;;;;;;;;7392739;19;19994;-82
2022/11/28 08:12:40;;;;;;;16.17;6.80;;;;;;;;;;7394938;19;20014;-83
2022/11/28 08:15:05;;;;;;;13.00;6.05;;;;;;;;;;7392406;19;20469;-82
2022/11/28 08:17:32;;;;;;;11.80;6.68;;;;;;;;;;7391156;19;20527;-82
2022/11/28 08:19:57;;;;;;;13.32;6.78;;;;;;;;;;7393794;19;20023;-82
2022/11/28 08:22:23;;;;;;;10.90;5.88;;;;;;;;;;7390696;19;19998;-82
2022/11/28 08:24:48;;;;;;;13.82;6.68;;;;;;;;;;7391697;19;20002;-82
2022/11/28 08:27:13;;;;;;;13.30;6.70;;;;;;;;;;7393568;19;20318;-81
2022/11/28 08:29:39;;;;;;;13.27;6.68;;;;;;;;;;7396393;19;20539;-81
2022/11/28 08:32:04;;;;;;;14.18;6.05;;;;;;;;;;7397614;19;20005;-83
2022/11/28 08:34:29;;;;;;;14.40;7.28;;;;;;;;;;7394757;19;20001;-82
2022/11/28 08:36:55;;;;;;;18.92;7.72;;;;;;;;;;7394169;19;20444;-83
2022/11/28 08:39:20;;;;;;;13.35;7.68;;;;;;;;;;7396673;19;19990;-83
2022/11/28 08:41:45;;;;;;;13.77;7.60;;;;;;;;;;7397311;19;20448;-83
2022/11/28 08:44:12;;;;;;;12.95;6.82;;;;;;;;;;7391680;19;20619;-83
2022/11/28 08:46:37;;;;;;;14.05;7.07;;;;;;;;;;7388462;19;20006;-83
2022/11/28 08:49:02;;;;;;;14.63;6.72;;;;;;;;;;7395172;19;20355;-82
2022/11/28 08:51:29;;;;;;;12.32;7.55;;;;;;;;;;7395762;19;20378;-84
2022/11/28 08:53:54;;;;;;;12.40;6.90;;;;;;;;;;7394707;19;20074;-81
2022/11/28 08:56:20;;;;;;;14.20;7.28;;;;;;;;;;7387125;19;19998;-83
2022/11/28 08:58:45;;;;;;;13.05;6.85;;;;;;;;;;7392484;19;20020;-83
2022/11/28 09:01:29;;;;;;;12.82;6.95;;;;;;;;;;7389812;19;20138;-82
2022/11/28 09:03:54;;;;;;;11.45;6.43;;;;;;;;;;7389950;19;20365;-83
2022/11/28 09:06:21;;;;;;;11.25;6.55;;;;;;;;;;7404820;19;20009;-83
2022/11/28 09:08:47;;;;;;;12.02;6.80;;;;;;;;;;7403935;19;19998;-84
2022/11/28 09:11:16;;;;;;;11.65;6.50;;;;;;;;;;7396352;19;20002;-82
2022/11/28 09:13:41;;;;;;;12.90;6.28;;;;;;;;;;7396351;19;20028;-83
2022/11/28 09:16:07;;;;;;;10.63;6.28;;;;;;;;;;7395230;19;20002;-83
2022/11/28 09:18:32;;;;;;;15.65;6.40;;;;;;;;;;7394324;19;20025;-83
2022/11/28 09:21:00;;;;;;;12.88;6.57;;;;;;;;;;7396313;19;20056;-82
2022/11/28 09:23:26;;;;;;;11.88;6.60;;;;;;;;;;7392811;19;20002;-83
2022/11/28 09:25:51;;;;;;;14.98;7.28;;;;;;;;;;7395239;19;20467;-83
2022/11/28 09:28:17;;;;;;;13.57;6.43;;;;;;;;;;7394368;19;20003;-79
2022/11/28 09:30:42;;;;;;;13.93;7.07;;;;;;;;;;7395705;19;20011;-82
2022/11/28 09:33:07;;;;;;;13.00;6.45;;;;;;;;;;7395890;19;20022;-82
2022/11/28 09:35:33;;;;;;;11.73;6.82;;;;;;;;;;7393380;19;20003;-84
2022/11/28 09:37:58;;;;;;;10.13;5.50;;;;;;;;;;7392369;19;20037;-85
2022/11/28 09:40:40;;;;;;;13.05;7.22;;;;;;;;;;7395279;19;20088;-86
2022/11/28 09:43:37;;;;;;;11.50;6.50;;;;;;;;;;7396695;19;19999;-85
2022/11/28 09:46:12;;;;;;;14.18;6.25;;;;;;;;;;7392189;19;20348;-84
2022/11/28 09:48:41;;;;;;;9.85;5.80;;;;;;;;;;7402620;19;20002;-83
2022/11/28 09:51:24;;;;;;;19.65;7.32;;;;;;;;;;7399534;19;19991;-84
2022/11/28 09:54:04;;;;;;;9.80;5.78;;;;;;;;;;7409882;19;20040;-83
2022/11/28 09:56:30;;;;;;;13.98;6.30;;;;;;;;;;7417954;19;20002;-82
2022/11/28 09:59:01;;;;;;;17.50;6.25;;;;;;;;;;7418716;19;20010;-85
2022/11/28 10:01:43;;;;;;;11.70;6.47;;;;;;;;;;7395043;19;20002;-84
2022/11/28 10:04:22;;;;;;;15.80;6.60;;;;;;;;;;7391368;19;20002;-84
2022/11/28 10:07:07;;;;;;;13.93;6.53;;;;;;;;;;7398344;19;19998;-84
2022/11/28 10:09:41;;;;;;;14.52;7.28;;;;;;;;;;7399479;19;20336;-84
2022/11/28 10:12:47;;;;;;;10.70;6.30;;;;;;;;;;7401940;19;19998;-85
2022/11/28 10:15:31;;;;;;;13.25;6.63;;;;;;;;;;7396106;19;20341;-84
2022/11/28 10:18:21;;;;;;;10.73;6.20;;;;;;;;;;7397437;19;19994;-85
2022/11/28 10:20:51;;;;;;;12.88;6.07;;;;;;;;;;7398886;19;20002;-85
2022/11/28 10:23:25;;;;;;;13.98;6.63;;;;;;;;;;7398714;19;20130;-84
2022/11/28 10:26:06;;;;;;;13.15;6.47;;;;;;;;;;7399463;19;20010;-86
2022/11/28 10:28:34;;;;;;;;;;;;;;;;;;7396490;19;20001;-84
2022/11/28 10:31:19;;;;;;;13.40;5.82;;;;;;;;;;7393360;19;19914;-85
2022/11/28 10:33:51;;;;;;;12.57;6.07;;;;;;;;;;7395334;19;20003;-85
2022/11/28 10:36:46;;;;;;;13.52;6.28;;;;;;;;;;7393512;19;19995;-85
2022/11/28 10:39:13;;;;;;;12.68;6.28;;;;;;;;;;7397805;19;20026;-85
2022/11/28 10:42:10;;;;;;;11.73;6.45;;;;;;;;;;7397535;19;19998;-84
2022/11/28 10:45:01;;;;;;;11.68;6.47;;;;;;;;;;7393517;19;20005;-83
2022/11/28 10:47:29;;;;;;;12.82;6.35;;;;;;;;;;7391125;19;20364;-84
2022/11/28 10:50:11;;;;;;;12.95;6.65;;;;;;;;;;7392379;19;19998;-85
2022/11/28 10:52:57;;;;;;;9.73;5.13;;;;;;;;;;7391910;19;19995;-83
2022/11/28 10:55:49;;;;;;;15.77;8.27;;;;;;;;;;7392439;19;20006;-85
2022/11/28 10:58:37;;;;;;;11.40;6.40;;;;;;;;;;7390881;19;19990;-86
2022/11/28 11:01:03;;;;;;;15.27;6.85;;;;;;;;;;7391331;19;20003;-85
2022/11/28 11:03:34;;;;;;;12.45;6.10;;;;;;;;;;7389348;19;20351;-85
2022/11/28 11:06:00;;;;;;;12.00;6.47;;;;;;;;;;7392451;19;19998;-85
2022/11/28 11:08:28;;;;;;;15.65;7.70;;;;;;;;;;7387686;19;20002;-83
2022/11/28 11:11:08;;;;;;;13.30;6.18;;;;;;;;;;7390094;19;19999;-86
2022/11/28 11:13:55;;;;;;;13.00;6.82;;;;;;;;;;7391620;19;19998;-85
2022/11/28 11:16:20;;;;;;;12.95;6.30;;;;;;;;;;7389113;19;20092;-86
2022/11/28 11:18:46;;;;;;;14.30;7.25;;;;;;;;;;7388571;19;20354;-85
2022/11/28 11:21:20;;;;;;;13.80;7.00;;;;;;;;;;7391616;19;20000;-84
2022/11/28 11:23:47;;;;;;;13.32;6.97;;;;;;;;;;7393366;19;20009;-84
2022/11/28 11:26:23;;;;;;;13.77;8.05;;;;;;;;;;7390843;19;20002;-83
2022/11/28 11:28:49;;;;;;;12.02;6.97;;;;;;;;;;7388015;19;19999;-85
2022/11/28 11:31:19;;;;;;;13.25;7.65;;;;;;;;;;7392056;19;20005;-85
2022/11/28 11:33:45;;;;;;;13.80;7.50;;;;;;;;;;7391931;19;20015;-85
2022/11/28 11:36:28;;;;;;;13.93;7.78;;;;;;;;;;7387791;19;20007;-85
2022/11/28 11:39:06;;;;;;;13.95;8.00;;;;;;;;;;7388776;19;20022;-84
2022/11/28 11:41:32;;;;;;;15.40;8.40;;;;;;;;;;7396244;19;20005;-84
2022/11/28 11:44:17;;;;;;;15.30;8.23;;;;;;;;;;7419455;19;19998;-83
2022/11/28 11:46:55;;;;;;;14.90;7.78;;;;;;;;;;7414167;19;20006;-84
2022/11/28 11:49:34;;;;;;;20.85;8.38;;;;;;;;;;7400420;19;20025;-84
2022/11/28 11:52:05;;;;;;;16.30;8.32;;;;;;;;;;7400814;19;20367;-86
2022/11/28 11:54:30;;;;;;;16.75;8.40;;;;;;;;;;7396572;19;20003;-86
2022/11/28 11:56:57;;;;;;;14.43;7.82;;;;;;;;;;7396346;19;20417;-85
2022/11/28 11:59:39;;;;;;;15.63;8.50;;;;;;;;;;7398779;19;20003;-84
2022/11/28 12:02:22;;;;;;;13.25;8.40;;;;;;;;;;7395634;19;19998;-84
2022/11/28 12:04:53;;;;;;;16.30;8.70;;;;;;;;;;7397363;19;20538;-86
2022/11/28 12:07:31;;;;;;;12.75;8.23;;;;;;;;;;7395197;19;20026;-85
2022/11/28 12:09:57;;;;;;;14.73;8.15;;;;;;;;;;7406896;19;19995;-86
2022/11/28 12:12:28;;;;;;;22.08;10.10;;;;;;;;;;7409246;19;19998;-84
2022/11/28 12:14:54;;;;;;;20.20;9.60;;;;;;;;;;7400068;19;20003;-77
2022/11/28 12:17:38;;;;;;;18.30;8.90;;;;;;;;;;7395902;19;20070;-80
2022/11/28 12:20:28;;;;;;;17.55;9.07;;;;;;;;;;7396625;19;19999;-84
2022/11/28 12:23:10;;;;;;;15.07;8.20;;;;;;;;;;7396058;19;20006;-84
2022/11/28 12:28:27;;;;;;;17.60;9.07;;;;;;;;;;7397086;19;20031;-79
2022/11/28 12:31:28;;;;;;;19.17;9.85;;;;;;;;;;7392796;19;19999;-79
2022/11/28 12:34:02;;;;;;;20.20;9.45;;;;;;;;;;7398512;19;20224;-79
2022/11/28 12:37:01;;;;;;;18.45;9.88;;;;;;;;;;7393388;19;20003;-80
2022/11/28 12:40:03;;;;;;;16.33;9.73;;;;;;;;;;7398125;19;20002;-78
2022/11/28 12:42:56;;;;;;;16.92;8.70;;;;;;;;;;7393588;19;20010;-79
2022/11/28 12:45:34;;;;;;;19.45;9.93;;;;;;;;;;7396644;19;20360;-79
2022/11/28 12:48:11;;;;;;;18.83;9.48;;;;;;;;;;7398119;19;20320;-79
2022/11/28 12:50:44;;;;;;;18.48;9.63;;;;;;;;;;7395735;19;20030;-79
2022/11/28 12:53:30;;;;;;;19.55;9.10;;;;;;;;;;7392678;19;20002;-78
2022/11/28 12:56:19;;;;;;;19.92;10.27;;;;;;;;;;7395565;19;20032;-78
2022/11/28 12:59:05;;;;;;;19.73;9.70;;;;;;;;;;7395283;19;20070;-78
2022/11/28 13:01:42;;;;;;;19.90;9.65;;;;;;;;;;7396522;19;20027;-80
2022/11/28 13:04:17;;;;;;;15.95;9.73;;;;;;;;;;7392507;19;20038;-79
2022/11/28 13:07:15;;;;;;;16.52;9.27;;;;;;;;;;7390028;19;20050;-80
2022/11/28 13:10:07;;;;;;;17.23;9.10;;;;;;;;;;7397192;19;19999;-77
2022/11/28 13:12:32;;;;;;;15.10;9.23;;;;;;;;;;7391115;19;20006;-78
2022/11/28 13:15:07;;;;;;;21.65;10.35;;;;;;;;;;7392903;19;19991;-77
2022/11/28 13:17:34;;;;;;;19.08;10.35;;;;;;;;;;7392801;19;20007;-79
2022/11/28 13:20:15;;;;;;;17.95;9.73;;;;;;;;;;7393092;19;20026;-77
2022/11/28 13:22:58;;;;;;;16.80;10.00;;;;;;;;;;7393168;19;20456;-79
2022/11/28 13:25:47;;;;;;;17.73;9.68;;;;;;;;;;7395357;19;20006;-83
2022/11/28 13:28:48;;;;;;;16.50;10.27;;;;;;;;;;7390776;19;20006;-82
2022/11/28 13:31:26;;;;;;;15.77;9.35;;;;;;;;;;7392587;19;20073;-83
2022/11/28 13:33:54;;;;;;;19.85;9.88;;;;;;;;;;7394652;19;20009;-83
2022/11/28 13:36:30;;;;;;;22.15;9.75;;;;;;;;;;7389182;19;20007;-82
2022/11/28 13:39:29;;;;;;;15.70;9.30;;;;;;;;;;7393964;19;20002;-83
2022/11/28 13:42:07;;;;;;;16.48;9.75;;;;;;;;;;7396970;19;20103;-82
2022/11/28 13:44:47;;;;;;;16.58;9.60;;;;;;;;;;7403017;19;20016;-82
2022/11/28 13:47:23;;;;;;;14.25;9.02;;;;;;;;;;7395733;19;20027;-82
2022/11/28 13:49:48;;;;;;;19.02;10.25;;;;;;;;;;7394810;19;20023;-82
2022/11/28 13:52:16;;;;;;;15.93;9.70;;;;;;;;;;7390790;19;20494;-86
2022/11/28 13:54:52;;;;;;;16.73;9.63;;;;;;;;;;7393805;19;20006;-84
2022/11/28 13:57:25;;;;;;;16.60;10.07;;;;;;;;;;7394244;19;20007;-84
2022/11/28 14:00:18;;;;;;;18.15;10.38;;;;;;;;;;7399802;19;20492;-86
2022/11/28 14:02:47;;;;;;;17.98;9.93;;;;;;;;;;7393406;19;20500;-84
2022/11/28 14:05:29;;;;;;;16.92;9.73;;;;;;;;;;7394061;19;20074;-85
2022/11/28 14:07:56;;;;;;;17.30;9.07;;;;;;;;;;7401971;19;19999;-80
2022/11/28 14:10:27;;;;;;;15.82;9.07;;;;;;;;;;7407953;19;20015;-83
2022/11/28 14:13:11;;;;;;;18.00;10.00;;;;;;;;;;7408299;19;20062;-81
2022/11/28 14:15:48;;;;;;;20.05;9.63;;;;;;;;;;7394788;19;20066;-84
2022/11/28 14:18:29;;;;;;;21.70;10.32;;;;;;;;;;7392512;19;20094;-84
2022/11/28 14:21:39;;;;;;;19.20;10.20;;;;;;;;;;7391837;19;20003;-83
2022/11/28 14:24:16;;;;;;;17.55;10.02;;;;;;;;;;7392678;19;20006;-84
2022/11/28 14:26:42;;;;;;;20.10;10.57;;;;;;;;;;7389991;19;20007;-83
2022/11/28 14:29:25;;;;;;;17.25;9.73;;;;;;;;;;7392451;19;20022;-83
2022/11/28 14:31:52;;;;;;;17.58;9.70;;;;;;;;;;7394214;19;20375;-84
2022/11/28 14:34:45;;;;;;;118.07;58.20;;;;;;;;;;7391603;19;20002;-84
2022/11/28 14:37:20;;;;;;;56.05;27.30;;;;;;;;;;7392982;19;20002;-83
2022/11/28 14:39:49;;;;;;;32.88;18.58;;;;;;;;;;7395530;19;20005;-81
2022/11/28 14:42:17;;;;;;;27.42;13.88;;;;;;;;;;7391717;19;20586;-82
2022/11/28 14:44:54;;;;;;;41.10;19.13;;;;;;;;;;7392243;19;20010;-82
2022/11/28 14:47:22;;;;;;;28.98;16.17;;;;;;;;;;7391986;19;20015;-83
2022/11/28 14:49:48;;;;;;;18.23;10.52;;;;;;;;;;7394683;19;20467;-83
2022/11/28 14:52:20;;;;;;;20.20;10.35;;;;;;;;;;7391476;19;19999;-82
2022/11/28 14:54:46;;;;;;;18.38;10.75;;;;;;;;;;7393648;19;20013;-82
2022/11/28 14:57:19;;;;;;;17.70;10.02;;;;;;;;;;7390810;19;19998;-83
2022/11/28 14:59:45;;;;;;;16.00;9.40;;;;;;;;;;7389411;19;20022;-82
2022/11/28 15:02:11;;;;;;;19.77;9.98;;;;;;;;;;7390947;19;20523;-83
2022/11/28 15:04:39;;;;;;;19.63;10.77;;;;;;;;;;7386921;19;20003;-83
2022/11/28 15:07:36;;;;;;;21.15;9.93;;;;;;;;;;7391516;19;20013;-84